<?xml version='1.0' encoding='UTF-8'?>
<gpx xmlns="http://www.topografix.com/GPX/1/1" creator="www.balnam.be" version="1.1" xmlns:xsi="http://www.w3.org/2001/XMLSchema-instance" xsi:schemaLocation="http://www.topografix.com/GPX/1/1 http://www.topografix.com/GPX/1/1/gpx.xsd">
<trk>
<name>bojmr5</name>
<cmt>v</cmt>
<desc>Marilles Chemin n°5 Ruelle des Chats / Rue du Village / Ruelle des chats / Rue Brou de Gentissart</desc>
<link href="https://chemins.be/marilles/chemin/5"/><trkseg>
<trkpt lat="50.692503" lon="4.966042"><time>2026-05-10T02:16:07Z</time></trkpt>
<trkpt lat="50.694302" lon="4.964046"><time>2026-05-10T02:26:07Z</time></trkpt>
<trkpt lat="50.696934" lon="4.958804"><time>2026-05-10T02:36:07Z</time></trkpt>
<trkpt lat="50.697491" lon="4.957817"><time>2026-05-10T02:46:07Z</time></trkpt>
<trkpt lat="50.698207" lon="4.955406"><time>2026-05-10T02:56:07Z</time></trkpt>
<trkpt lat="50.698660" lon="4.953697"><time>2026-05-10T03:06:07Z</time></trkpt>
<trkpt lat="50.699462" lon="4.951122"><time>2026-05-10T03:16:07Z</time></trkpt>
<trkpt lat="50.699851" lon="4.948602"><time>2026-05-10T03:26:07Z</time></trkpt>
<trkpt lat="50.699883" lon="4.947753"><time>2026-05-10T03:36:07Z</time></trkpt>
<trkpt lat="50.700212" lon="4.945783"><time>2026-05-10T03:46:07Z</time></trkpt>
</trkseg></trk>
<trk>
<name>bojmr5</name>
<cmt>r</cmt>
<desc>Marilles Chemin n°5 Ruelle des Chats / Rue du Village / Ruelle des chats / Rue Brou de Gentissart</desc>
<link href="https://chemins.be/marilles/chemin/5"/><trkseg>
<trkpt lat="50.700212" lon="4.945783"><time>2026-05-10T03:46:07Z</time></trkpt>
<trkpt lat="50.700447" lon="4.944373"><time>2026-05-10T03:56:07Z</time></trkpt>
<trkpt lat="50.700461" lon="4.941155"><time>2026-05-10T04:06:07Z</time></trkpt>
<trkpt lat="50.700773" lon="4.940404"><time>2026-05-10T04:16:07Z</time></trkpt>
<trkpt lat="50.701419" lon="4.939481"><time>2026-05-10T04:26:07Z</time></trkpt>
</trkseg></trk>
<trk>
<name>bojmr5</name>
<cmt>v</cmt>
<desc>Marilles Chemin n°5 Ruelle des Chats / Rue du Village / Ruelle des chats / Rue Brou de Gentissart</desc>
<link href="https://chemins.be/marilles/chemin/5"/><trkseg>
<trkpt lat="50.701419" lon="4.939481"><time>2026-05-10T04:26:07Z</time></trkpt>
<trkpt lat="50.701601" lon="4.939030"><time>2026-05-10T04:36:07Z</time></trkpt>
<trkpt lat="50.702082" lon="4.938129"><time>2026-05-10T04:46:07Z</time></trkpt>
<trkpt lat="50.701508" lon="4.936126"><time>2026-05-10T04:56:07Z</time></trkpt>
<trkpt lat="50.701216" lon="4.935174"><time>2026-05-10T05:06:07Z</time></trkpt>
<trkpt lat="50.701075" lon="4.934522"><time>2026-05-10T05:16:07Z</time></trkpt>
<trkpt lat="50.701033" lon="4.933898"><time>2026-05-10T05:26:07Z</time></trkpt>
<trkpt lat="50.701011" lon="4.932964"><time>2026-05-10T05:36:07Z</time></trkpt>
<trkpt lat="50.700864" lon="4.931645"><time>2026-05-10T05:46:07Z</time></trkpt>
<trkpt lat="50.701021" lon="4.931209"><time>2026-05-10T05:56:07Z</time></trkpt>
<trkpt lat="50.701745" lon="4.928430"><time>2026-05-10T06:06:07Z</time></trkpt>
<trkpt lat="50.701833" lon="4.927229"><time>2026-05-10T06:16:07Z</time></trkpt>
<trkpt lat="50.702581" lon="4.924675"><time>2026-05-10T06:26:07Z</time></trkpt>
</trkseg>
</trk>
</gpx>